createdAt,value
2019-05-16T00:01:02.940Z,10.90
2019-05-16T00:04:08.735Z,10.80
2019-05-16T00:07:13.485Z,10.80
2019-05-16T00:10:18.652Z,10.80
2019-05-16T00:13:23.098Z,10.80
2019-05-16T00:16:28.789Z,10.80
2019-05-16T00:19:33.139Z,10.80
2019-05-16T00:22:39.477Z,10.80
2019-05-16T00:25:43.337Z,10.70
2019-05-16T00:28:48.486Z,10.70
2019-05-16T00:31:52.957Z,10.80
2019-05-16T00:34:58.360Z,10.70
2019-05-16T00:38:02.762Z,10.70
2019-05-16T00:41:08.512Z,10.90
2019-05-16T00:44:12.866Z,10.80
2019-05-16T00:47:17.899Z,10.80
2019-05-16T00:50:22.346Z,10.70
2019-05-16T00:53:28.713Z,10.70
2019-05-16T00:56:33.087Z,10.60
2019-05-16T00:59:38.850Z,10.60
2019-05-16T01:02:43.119Z,10.70
2019-05-16T01:05:48.174Z,10.60
2019-05-16T01:08:52.611Z,10.50
2019-05-16T01:11:57.951Z,10.50
2019-05-16T01:15:02.546Z,10.50
2019-05-16T01:18:08.027Z,10.50
2019-05-16T01:21:12.545Z,10.50
2019-05-16T01:24:18.790Z,10.40
2019-05-16T01:27:22.728Z,10.40
2019-05-16T01:30:28.702Z,10.30
2019-05-16T01:33:33.235Z,10.30
2019-05-16T01:36:40.668Z,10.20
2019-05-16T01:39:43.539Z,10.20
2019-05-16T01:42:48.999Z,10.30
2019-05-16T01:45:53.537Z,10.30
2019-05-16T01:48:57.919Z,10.20
2019-05-16T01:52:02.168Z,10.30
2019-05-16T01:55:08.236Z,10.20
2019-05-16T01:58:12.794Z,10.20
2019-05-16T02:01:18.942Z,10.10
2019-05-16T02:04:23.011Z,10.10
2019-05-16T02:07:28.366Z,10.10
2019-05-16T02:10:32.773Z,10.10
2019-05-16T02:13:39.090Z,10.00
2019-05-16T02:16:43.032Z,10.10
2019-05-16T02:19:48.556Z,10.00
2019-05-16T02:22:52.911Z,10.10
2019-05-16T02:25:57.948Z,10.00
2019-05-16T02:29:02.415Z,9.90
2019-05-16T02:32:06.635Z,9.80
2019-05-16T02:35:11.945Z,9.80
2019-05-16T02:38:16.514Z,9.70
2019-05-16T02:41:21.575Z,9.80
2019-05-16T02:44:26.082Z,9.70
2019-05-16T02:47:31.488Z,9.70
2019-05-16T02:50:36.307Z,9.70
2019-05-16T02:53:41.553Z,9.60
2019-05-16T02:56:46.317Z,9.40
2019-05-16T02:59:51.139Z,9.20
2019-05-16T03:02:55.592Z,9.10
2019-05-16T03:06:01.565Z,9.00
2019-05-16T03:09:10.917Z,9.00
2019-05-16T03:12:14.415Z,9.00
2019-05-16T03:15:21.845Z,9.00
2019-05-16T03:18:26.445Z,9.00
2019-05-16T03:21:34.209Z,8.90
2019-05-16T03:24:41.757Z,8.80
2019-05-16T03:27:44.412Z,8.70
2019-05-16T03:30:53.696Z,8.60
2019-05-16T03:33:59.122Z,8.50
2019-05-16T03:37:04.220Z,8.60
2019-05-16T03:40:06.787Z,8.60
2019-05-16T03:43:11.568Z,8.60
2019-05-16T03:46:16.261Z,8.60
2019-05-16T03:49:21.199Z,8.70
2019-05-16T03:52:25.841Z,8.70
2019-05-16T03:55:32.524Z,8.90
2019-05-16T03:58:36.100Z,9.00
2019-05-16T04:01:41.076Z,9.00
2019-05-16T04:04:45.607Z,8.90
2019-05-16T04:07:53.147Z,9.00
2019-05-16T04:10:56.227Z,9.00
2019-05-16T04:14:01.463Z,8.90
2019-05-16T04:17:06.011Z,8.90
2019-05-16T04:20:11.507Z,8.90
2019-05-16T04:23:16.448Z,8.80
2019-05-16T04:26:21.651Z,8.80
2019-05-16T04:29:26.438Z,8.80
2019-05-16T04:32:31.484Z,8.80
2019-05-16T04:35:36.037Z,8.70
2019-05-16T04:38:45.362Z,8.80
2019-05-16T04:41:46.373Z,8.70
2019-05-16T04:44:51.543Z,8.50
2019-05-16T04:47:56.120Z,8.40
2019-05-16T04:51:01.325Z,8.40
2019-05-16T04:54:07.177Z,8.40
2019-05-16T04:57:12.102Z,8.60
2019-05-16T05:00:20.865Z,8.50
2019-05-16T05:03:25.552Z,8.40
2019-05-16T05:06:31.248Z,8.50
2019-05-16T05:09:35.984Z,8.60
2019-05-16T05:12:41.007Z,8.70
2019-05-16T05:15:45.502Z,8.70
2019-05-16T05:18:51.403Z,8.80
2019-05-16T05:21:55.599Z,8.90
2019-05-16T05:25:00.268Z,8.90
2019-05-16T05:28:04.639Z,8.90
2019-05-16T05:31:10.837Z,8.90
2019-05-16T05:34:14.781Z,8.90
2019-05-16T05:37:20.452Z,9.00
2019-05-16T05:40:24.789Z,9.00
2019-05-16T05:43:30.583Z,9.00
2019-05-16T05:46:34.982Z,8.90
2019-05-16T05:49:40.486Z,9.00
2019-05-16T05:52:46.236Z,9.00
2019-05-16T05:55:51.535Z,9.00
2019-05-16T05:58:58.261Z,9.00
2019-05-16T06:02:02.415Z,9.00
2019-05-16T06:05:07.788Z,9.20
2019-05-16T06:08:12.102Z,9.10
2019-05-16T06:11:16.284Z,9.10
2019-05-16T06:14:21.322Z,9.20
2019-05-16T06:17:25.708Z,9.20
2019-05-16T06:20:31.760Z,9.40
2019-05-16T06:23:35.945Z,9.40
2019-05-16T06:26:40.336Z,9.50
2019-05-16T06:29:44.617Z,9.50
2019-05-16T06:32:50.187Z,9.70
2019-05-16T06:35:54.561Z,9.80
2019-05-16T06:39:00.239Z,9.90
2019-05-16T06:42:09.678Z,9.80
2019-05-16T06:45:14.293Z,10.10
2019-05-16T06:48:20.786Z,10.20
2019-05-16T06:51:24.439Z,10.20
2019-05-16T06:54:29.897Z,10.30
2019-05-16T06:57:34.495Z,10.40
2019-05-16T07:00:40.587Z,10.60
2019-05-16T07:03:44.686Z,10.70
2019-05-16T07:06:58.704Z,10.80
2019-05-16T07:10:03.576Z,10.80
2019-05-16T07:13:00.889Z,10.80
2019-05-16T07:16:05.270Z,11.00
2019-05-16T07:19:10.495Z,11.10
2019-05-16T07:22:14.956Z,11.20
2019-05-16T07:25:20.776Z,11.30
2019-05-16T07:28:25.505Z,11.30
2019-05-16T07:31:30.153Z,11.40
2019-05-16T07:34:34.512Z,11.50
2019-05-16T07:37:39.896Z,11.50
2019-05-16T07:40:44.454Z,11.50
2019-05-16T07:43:50.539Z,11.70
2019-05-16T07:46:55.598Z,11.80
2019-05-16T07:49:59.823Z,11.90
2019-05-16T07:53:04.119Z,12.00
2019-05-16T07:56:10.455Z,12.10
2019-05-16T07:59:14.348Z,12.00
2019-05-16T08:02:20.928Z,12.00
2019-05-16T08:05:24.644Z,12.10
2019-05-16T08:08:31.471Z,12.30
2019-05-16T08:11:35.003Z,12.50
2019-05-16T08:14:40.935Z,12.80
2019-05-16T08:17:45.236Z,12.90
2019-05-16T08:20:52.216Z,12.80
2019-05-16T08:23:55.500Z,13.00
2019-05-16T08:27:01.187Z,13.30
2019-05-16T08:30:06.588Z,13.40
2019-05-16T08:33:13.516Z,13.40
2019-05-16T08:36:16.842Z,13.50
2019-05-16T08:39:21.492Z,13.60
2019-05-16T08:42:25.971Z,13.90
2019-05-16T08:45:31.559Z,13.70
2019-05-16T08:48:36.546Z,13.60
2019-05-16T08:51:42.625Z,13.90
2019-05-16T08:54:46.930Z,13.90
2019-05-16T08:57:54.298Z,14.00
2019-05-16T09:00:57.276Z,14.00
2019-05-16T09:04:02.417Z,14.50
2019-05-16T09:07:06.731Z,14.50
2019-05-16T09:10:45.751Z,14.60
2019-05-16T09:13:18.660Z,14.40
2019-05-16T09:16:22.848Z,14.60
2019-05-16T09:19:27.592Z,14.90
2019-05-16T09:22:32.145Z,14.90
2019-05-16T09:25:36.999Z,14.90
2019-05-16T09:28:41.447Z,14.70
2019-05-16T09:32:07.291Z,14.60
2019-05-16T09:34:51.712Z,14.60
2019-05-16T09:37:57.603Z,14.50
2019-05-16T09:41:01.938Z,14.30
2019-05-16T09:44:08.672Z,14.20
2019-05-16T09:47:12.273Z,14.30
2019-05-16T09:50:18.184Z,14.30
2019-05-16T09:53:22.390Z,14.40
2019-05-16T09:56:27.128Z,14.40
2019-05-16T09:59:31.581Z,14.40
2019-05-16T10:02:36.752Z,14.40
2019-05-16T10:05:41.231Z,14.50
2019-05-16T10:08:46.414Z,14.50
2019-05-16T10:12:05.505Z,14.70
2019-05-16T10:14:59.566Z,14.80
2019-05-16T10:18:02.797Z,14.60
2019-05-16T10:21:08.024Z,14.50
2019-05-16T10:24:12.483Z,14.60
2019-05-16T10:27:17.293Z,14.60
2019-05-16T10:30:21.972Z,14.60
2019-05-16T10:33:27.601Z,14.60
2019-05-16T10:36:31.978Z,14.70
2019-05-16T10:39:37.422Z,14.50
2019-05-16T10:42:42.012Z,14.60
2019-05-16T10:45:46.532Z,14.70
2019-05-16T10:48:50.862Z,14.60
2019-05-16T10:51:57.554Z,14.60
2019-05-16T10:55:02.707Z,14.60
2019-05-16T10:58:07.825Z,14.70
2019-05-16T11:01:24.205Z,14.80
2019-05-16T11:04:28.438Z,14.70
2019-05-16T11:07:29.415Z,14.90
2019-05-16T11:10:31.479Z,15.00
2019-05-16T11:13:37.065Z,15.10
2019-05-16T11:16:41.477Z,15.10
2019-05-16T11:19:46.566Z,15.40
2019-05-16T11:22:51.042Z,15.30
2019-05-16T11:25:56.088Z,15.40
2019-05-16T11:29:01.342Z,15.50
2019-05-16T11:32:06.950Z,15.50
2019-05-16T11:35:11.680Z,15.60
2019-05-16T11:38:17.720Z,15.60
2019-05-16T11:41:22.085Z,15.60
2019-05-16T11:44:28.730Z,15.70
2019-05-16T11:47:32.346Z,15.70
2019-05-16T11:50:37.383Z,15.80
2019-05-16T11:53:41.853Z,15.90
2019-05-16T11:56:46.462Z,15.90
2019-05-16T11:59:50.991Z,16.00
2019-05-16T12:02:55.259Z,15.90
2019-05-16T12:05:59.559Z,15.80
2019-05-16T12:09:06.696Z,15.80
2019-05-16T12:12:11.057Z,15.60
2019-05-16T12:15:19.410Z,15.50
2019-05-16T12:18:21.911Z,15.50
2019-05-16T12:21:27.473Z,15.60
2019-05-16T12:24:37.451Z,15.70
2019-05-16T12:27:42.175Z,15.90
2019-05-16T12:30:43.770Z,15.90
2019-05-16T12:33:48.219Z,15.90
2019-05-16T12:36:52.572Z,15.90
2019-05-16T12:39:57.346Z,15.80
2019-05-16T12:43:01.846Z,15.70
2019-05-16T12:46:07.482Z,15.60
2019-05-16T12:49:12.163Z,15.80
2019-05-16T12:52:16.502Z,15.70
2019-05-16T12:55:20.781Z,15.90
2019-05-16T12:58:37.027Z,15.60
2019-05-16T13:01:34.353Z,15.70
2019-05-16T13:04:37.755Z,15.70
2019-05-16T13:07:42.192Z,15.70
2019-05-16T13:10:47.103Z,15.70
2019-05-16T13:14:03.404Z,15.60
2019-05-16T13:16:57.552Z,15.60
2019-05-16T13:20:02.192Z,15.50
2019-05-16T13:23:14.207Z,15.40
2019-05-16T13:26:12.703Z,15.40
2019-05-16T13:29:18.142Z,15.30
2019-05-16T13:32:22.702Z,15.30
2019-05-16T13:35:27.238Z,15.20
2019-05-16T13:38:31.577Z,15.40
2019-05-16T13:41:37.911Z,15.50
2019-05-16T13:44:41.729Z,15.50
2019-05-16T13:47:48.445Z,15.60
2019-05-16T13:50:51.905Z,15.70
2019-05-16T13:53:56.084Z,15.70
2019-05-16T13:57:00.304Z,15.70
2019-05-16T14:00:07.495Z,15.90
2019-05-16T14:03:12.092Z,16.00
2019-05-16T14:06:18.440Z,15.90
2019-05-16T14:09:22.349Z,15.90
2019-05-16T14:12:26.861Z,16.00
2019-05-16T14:15:31.101Z,16.10
2019-05-16T14:18:37.586Z,16.20
2019-05-16T14:21:41.444Z,16.10
2019-05-16T14:24:48.239Z,16.00
2019-05-16T14:27:51.594Z,15.80
2019-05-16T14:30:57.278Z,15.80
2019-05-16T14:34:01.733Z,15.80
2019-05-16T14:37:07.272Z,16.00
2019-05-16T14:40:12.941Z,15.90
2019-05-16T14:43:17.575Z,15.80
2019-05-16T14:46:21.916Z,15.80
2019-05-16T14:49:28.891Z,15.80
2019-05-16T14:52:32.187Z,15.90
2019-05-16T14:55:38.128Z,15.90
2019-05-16T14:58:42.772Z,16.00
2019-05-16T15:01:47.401Z,16.00
2019-05-16T15:04:51.831Z,16.00
2019-05-16T15:07:56.958Z,15.90
2019-05-16T15:11:01.371Z,15.90
2019-05-16T15:14:07.111Z,15.90
2019-05-16T15:17:11.694Z,16.00
2019-05-16T15:20:18.227Z,15.80
2019-05-16T15:23:22.014Z,15.80
2019-05-16T15:26:27.187Z,15.90
2019-05-16T15:29:31.587Z,15.90
2019-05-16T15:32:38.428Z,15.90
2019-05-16T15:35:41.946Z,15.90
2019-05-16T15:38:47.254Z,16.00
2019-05-16T15:41:51.679Z,16.00
2019-05-16T15:44:55.957Z,15.90
2019-05-16T15:48:00.764Z,15.90
2019-05-16T15:51:08.086Z,16.00
2019-05-16T15:54:17.804Z,16.00
2019-05-16T15:57:21.253Z,16.00
2019-05-16T16:00:40.237Z,16.00
2019-05-16T16:03:47.064Z,16.00
2019-05-16T16:06:50.605Z,16.00
2019-05-16T16:09:57.516Z,16.10
2019-05-16T16:13:01.297Z,16.00
2019-05-16T16:16:10.099Z,16.00
2019-05-16T16:19:11.724Z,16.10
2019-05-16T16:22:17.762Z,16.20
2019-05-16T16:25:22.082Z,16.20
2019-05-16T16:28:27.080Z,16.20
2019-05-16T16:31:31.798Z,16.20
2019-05-16T16:34:36.741Z,16.30
2019-05-16T16:37:41.153Z,16.40
2019-05-16T16:40:47.782Z,16.40
2019-05-16T16:43:51.547Z,16.50
2019-05-16T16:46:57.306Z,16.40
2019-05-16T16:50:01.759Z,16.40
2019-05-16T16:53:07.101Z,16.30
2019-05-16T16:56:11.591Z,16.40
2019-05-16T16:59:17.277Z,16.40
2019-05-16T17:02:21.794Z,16.40
2019-05-16T17:05:26.598Z,16.40
2019-05-16T17:08:31.115Z,16.40
2019-05-16T17:11:37.064Z,16.30
2019-05-16T17:14:41.586Z,16.30
2019-05-16T17:17:46.605Z,16.20
2019-05-16T17:20:51.159Z,16.10
2019-05-16T17:23:56.901Z,16.00
2019-05-16T17:27:01.294Z,16.00
2019-05-16T17:30:08.950Z,16.00
2019-05-16T17:33:18.336Z,16.00
2019-05-16T17:36:22.093Z,16.10
2019-05-16T17:39:27.476Z,16.10
2019-05-16T17:42:34.471Z,16.20
2019-05-16T17:45:37.834Z,16.10
2019-05-16T17:48:42.224Z,16.10
2019-05-16T17:51:47.246Z,16.00
2019-05-16T17:54:53.290Z,16.00
2019-05-16T17:57:57.861Z,16.00
2019-05-16T18:01:02.171Z,16.00
2019-05-16T18:04:06.590Z,16.00
2019-05-16T18:07:10.875Z,16.10
2019-05-16T18:10:15.403Z,16.10
2019-05-16T18:13:19.653Z,16.10
2019-05-16T18:16:23.891Z,16.00
2019-05-16T18:19:28.072Z,16.00
2019-05-16T18:22:32.411Z,15.90
2019-05-16T18:25:36.833Z,15.80
2019-05-16T18:28:41.158Z,15.60
2019-05-16T18:31:47.194Z,15.60
2019-05-16T18:34:51.398Z,15.50
2019-05-16T18:37:56.953Z,15.40
2019-05-16T18:41:01.399Z,15.40
2019-05-16T18:44:05.876Z,15.30
2019-05-16T18:47:11.538Z,15.20
2019-05-16T18:50:18.021Z,15.20
2019-05-16T18:53:22.714Z,15.10
2019-05-16T18:56:27.259Z,15.10
2019-05-16T18:59:31.682Z,15.00
2019-05-16T19:02:36.863Z,15.00
2019-05-16T19:05:41.359Z,15.00
2019-05-16T19:08:45.560Z,15.00
2019-05-16T19:11:49.891Z,14.90
2019-05-16T19:14:54.180Z,14.90
2019-05-16T19:17:58.706Z,14.80
2019-05-16T19:21:03.098Z,14.90
2019-05-16T19:24:07.454Z,14.90
2019-05-16T19:27:11.754Z,14.90
2019-05-16T19:30:16.708Z,14.80
2019-05-16T19:33:21.050Z,14.70
2019-05-16T19:36:27.112Z,14.70
2019-05-16T19:39:31.567Z,14.70
2019-05-16T19:42:36.798Z,14.70
2019-05-16T19:45:41.318Z,14.70
2019-05-16T19:48:46.482Z,14.60
2019-05-16T19:51:50.917Z,14.60
2019-05-16T19:54:56.455Z,14.50
2019-05-16T19:58:00.810Z,14.40
2019-05-16T20:01:05.157Z,14.40
2019-05-16T20:04:09.352Z,14.40
2019-05-16T20:07:13.759Z,14.40
2019-05-16T20:10:18.249Z,14.40
2019-05-16T20:13:22.581Z,14.40
2019-05-16T20:16:27.414Z,14.30
2019-05-16T20:19:31.919Z,14.30
2019-05-16T20:22:36.962Z,14.30
2019-05-16T20:25:41.525Z,14.30
2019-05-16T20:28:49.194Z,14.20
2019-05-16T20:31:53.538Z,14.20
2019-05-16T20:34:57.753Z,14.20
2019-05-16T20:38:02.089Z,14.20
2019-05-16T20:41:07.860Z,14.20
2019-05-16T20:44:12.447Z,14.20
2019-05-16T20:47:16.765Z,14.10
2019-05-16T20:50:21.115Z,14.10
2019-05-16T20:53:27.205Z,14.10
2019-05-16T20:56:31.552Z,13.90
2019-05-16T20:59:35.864Z,13.90
2019-05-16T21:02:40.284Z,14.00
2019-05-16T21:05:47.696Z,14.00
2019-05-16T21:08:50.633Z,14.00
2019-05-16T21:11:56.978Z,13.90
2019-05-16T21:15:01.060Z,14.00
2019-05-16T21:18:07.315Z,13.90
2019-05-16T21:21:11.539Z,13.90
2019-05-16T21:24:15.803Z,13.90
2019-05-16T21:27:20.115Z,13.90
2019-05-16T21:30:24.406Z,13.90
2019-05-16T21:33:28.647Z,13.80
2019-05-16T21:36:32.872Z,13.70
2019-05-16T21:39:37.186Z,13.50
2019-05-16T21:42:41.490Z,13.40
2019-05-16T21:45:47.383Z,13.20
2019-05-16T21:48:51.967Z,13.10
2019-05-16T21:51:57.085Z,12.90
2019-05-16T21:55:01.556Z,12.90
2019-05-16T21:58:05.921Z,13.10
2019-05-16T22:01:13.509Z,13.00
2019-05-16T22:04:17.757Z,13.00
2019-05-16T22:07:32.798Z,13.10
2019-05-16T22:10:28.057Z,13.20
2019-05-16T22:13:32.522Z,13.30
2019-05-16T22:16:37.144Z,13.40
2019-05-16T22:19:41.573Z,13.40
2019-05-16T22:22:46.891Z,13.40
2019-05-16T22:25:51.396Z,13.40
2019-05-16T22:28:57.479Z,13.40
2019-05-16T22:32:01.672Z,13.50
2019-05-16T22:35:07.881Z,13.50
2019-05-16T22:38:12.110Z,13.50
2019-05-16T22:41:17.305Z,13.50
2019-05-16T22:44:21.713Z,13.40
2019-05-16T22:47:26.659Z,13.40
2019-05-16T22:50:31.012Z,13.40
2019-05-16T22:53:36.866Z,13.40
2019-05-16T22:56:41.241Z,13.40
2019-05-16T22:59:45.455Z,13.40
2019-05-16T23:02:49.734Z,13.40
2019-05-16T23:05:56.415Z,13.30
2019-05-16T23:09:00.135Z,13.30
2019-05-16T23:12:04.503Z,13.40
2019-05-16T23:15:09.007Z,13.40
2019-05-16T23:18:13.311Z,13.30
2019-05-16T23:21:17.538Z,13.30
2019-05-16T23:24:21.841Z,13.30
2019-05-16T23:27:27.277Z,13.30
2019-05-16T23:30:31.697Z,13.20
2019-05-16T23:33:36.615Z,13.30
2019-05-16T23:36:41.149Z,13.20
2019-05-16T23:39:47.463Z,13.20
2019-05-16T23:42:51.839Z,13.20
2019-05-16T23:45:56.441Z,13.20
2019-05-16T23:49:00.924Z,13.20
2019-05-16T23:52:07.271Z,13.10
2019-05-16T23:55:11.223Z,13.10
2019-05-16T23:58:15.503Z,13.10
